createdAt,value
2018-05-11T00:01:18.146Z,83.43
2018-05-11T00:03:44.680Z,84.27
2018-05-11T00:06:11.005Z,84.30
2018-05-11T00:08:37.361Z,83.96
2018-05-11T00:11:03.632Z,83.75
2018-05-11T00:13:30.115Z,82.93
2018-05-11T00:15:56.640Z,82.69
2018-05-11T00:18:23.285Z,84.31
2018-05-11T00:20:49.785Z,84.02
2018-05-11T00:23:16.357Z,84.79
2018-05-11T00:25:42.728Z,85.08
2018-05-11T00:28:09.214Z,83.86
2018-05-11T00:30:35.759Z,82.69
2018-05-11T00:33:02.145Z,84.77
2018-05-11T00:35:28.552Z,85.49
2018-05-11T00:37:55.060Z,85.62
2018-05-11T00:40:21.597Z,84.75
2018-05-11T00:42:48.135Z,85.07
2018-05-11T00:45:14.421Z,84.35
2018-05-11T00:47:40.745Z,84.57
2018-05-11T00:50:07.138Z,86.02
2018-05-11T00:52:33.568Z,83.37
2018-05-11T00:55:12.388Z,84.84
2018-05-11T00:57:38.770Z,84.65
2018-05-11T01:00:05.177Z,84.53
2018-05-11T01:02:31.535Z,85.17
2018-05-11T01:04:57.869Z,84.85
2018-05-11T01:07:24.555Z,83.64
2018-05-11T01:09:50.984Z,83.85
2018-05-11T01:12:17.424Z,86.21
2018-05-11T01:14:43.749Z,84.28
2018-05-11T01:17:10.488Z,84.90
2018-05-11T01:19:37.033Z,84.42
2018-05-11T01:22:03.350Z,84.85
2018-05-11T01:24:29.693Z,84.66
2018-05-11T01:26:56.234Z,86.23
2018-05-11T01:29:22.768Z,86.37
2018-05-11T01:31:49.413Z,85.90
2018-05-11T01:34:15.844Z,86.20
2018-05-11T01:36:42.379Z,86.38
2018-05-11T01:39:23.759Z,86.35
2018-05-11T01:41:50.133Z,86.85
2018-05-11T01:44:16.598Z,86.25
2018-05-11T01:46:43.124Z,86.45
2018-05-11T01:49:09.701Z,88.28
2018-05-11T01:51:36.042Z,86.84
2018-05-11T01:54:02.401Z,88.11
2018-05-11T01:56:28.739Z,87.15
2018-05-11T01:58:55.224Z,88.10
2018-05-11T02:01:21.583Z,87.61
2018-05-11T02:03:48.004Z,88.35
2018-05-11T02:06:14.371Z,88.22
2018-05-11T02:08:40.745Z,88.98
2018-05-11T02:11:07.078Z,87.38
2018-05-11T02:13:33.454Z,86.69
2018-05-11T02:15:59.809Z,89.12
2018-05-11T02:18:26.292Z,88.58
2018-05-11T02:20:52.652Z,88.27
2018-05-11T02:23:19.010Z,89.31
2018-05-11T02:25:45.489Z,89.42
2018-05-11T02:28:12.022Z,88.86
2018-05-11T02:30:38.413Z,89.12
2018-05-11T02:33:04.804Z,89.10
2018-05-11T02:35:31.124Z,89.13
2018-05-11T02:37:58.681Z,88.87
2018-05-11T02:40:25.218Z,89.08
2018-05-11T02:42:51.533Z,90.18
2018-05-11T02:45:17.943Z,90.22
2018-05-11T02:47:44.365Z,89.83
2018-05-11T02:50:10.966Z,90.22
2018-05-11T02:52:37.489Z,89.77
2018-05-11T02:55:04.026Z,90.30
2018-05-11T02:57:30.408Z,89.83
2018-05-11T02:59:56.896Z,90.13
2018-05-11T03:02:23.228Z,90.54
2018-05-11T03:04:49.573Z,89.71
2018-05-11T03:07:17.109Z,90.47
2018-05-11T03:09:43.561Z,90.47
2018-05-11T03:12:09.875Z,89.86
2018-05-11T03:14:36.247Z,90.71
2018-05-11T03:17:02.749Z,90.51
2018-05-11T03:19:30.926Z,90.44
2018-05-11T03:21:58.310Z,90.76
2018-05-11T03:24:25.092Z,90.24
2018-05-11T03:26:51.763Z,90.04
2018-05-11T03:29:18.298Z,89.98
2018-05-11T03:31:44.649Z,90.25
2018-05-11T03:34:11.141Z,90.20
2018-05-11T03:36:37.601Z,89.67
2018-05-11T03:39:04.152Z,89.82
2018-05-11T03:41:30.511Z,89.62
2018-05-11T03:43:57.210Z,90.21
2018-05-11T03:46:23.531Z,90.39
2018-05-11T03:48:50.099Z,89.75
2018-05-11T03:51:16.675Z,90.12
2018-05-11T03:53:42.985Z,89.54
2018-05-11T03:56:09.375Z,89.62
2018-05-11T03:58:36.124Z,88.35
2018-05-11T04:01:02.654Z,87.94
2018-05-11T04:06:38.327Z,87.75
2018-05-11T04:09:04.826Z,87.73
2018-05-11T04:11:31.164Z,86.03
2018-05-11T04:13:57.599Z,86.90
2018-05-11T04:16:24.258Z,86.95
2018-05-11T04:18:52.961Z,86.93
2018-05-11T04:21:19.297Z,84.95
2018-05-11T04:23:45.783Z,85.36
2018-05-11T04:26:12.149Z,86.39
2018-05-11T04:28:39.605Z,85.28
2018-05-11T04:31:06.250Z,86.11
2018-05-11T04:33:32.669Z,86.94
2018-05-11T04:35:59.074Z,85.94
2018-05-11T04:38:25.703Z,85.58
2018-05-11T04:40:52.076Z,86.93
2018-05-11T04:43:18.732Z,86.22
2018-05-11T04:45:45.090Z,85.26
2018-05-11T04:48:12.180Z,84.14
2018-05-11T04:50:38.745Z,84.61
2018-05-11T04:53:05.381Z,85.16
2018-05-11T04:55:32.215Z,84.97
2018-05-11T04:57:58.964Z,83.96
2018-05-11T05:00:25.482Z,84.19
2018-05-11T05:02:52.140Z,83.67
2018-05-11T05:05:18.771Z,84.29
2018-05-11T05:07:45.615Z,83.76
2018-05-11T05:10:12.157Z,82.95
2018-05-11T05:12:38.602Z,78.41
2018-05-11T05:15:04.992Z,74.55
2018-05-11T05:17:31.453Z,71.50
2018-05-11T05:19:57.893Z,73.57
2018-05-11T05:22:24.534Z,74.95
2018-05-11T05:24:50.923Z,74.00
2018-05-11T05:27:17.495Z,74.81
2018-05-11T05:29:44.347Z,75.51
2018-05-11T05:32:10.697Z,74.96
2018-05-11T05:34:37.010Z,75.01
2018-05-11T05:37:03.650Z,74.33
2018-05-11T05:39:30.019Z,73.01
2018-05-11T05:41:56.451Z,73.18
2018-05-11T05:44:23.689Z,71.34
2018-05-11T05:46:51.118Z,70.07
2018-05-11T05:49:17.617Z,67.72
2018-05-11T05:51:44.153Z,65.09
2018-05-11T05:54:11.610Z,68.22
2018-05-11T05:56:38.079Z,70.90
2018-05-11T05:59:04.624Z,71.39
2018-05-11T06:01:31.265Z,72.67
2018-05-11T06:03:58.007Z,72.20
2018-05-11T06:06:24.954Z,69.92
2018-05-11T06:08:51.489Z,66.87
2018-05-11T06:11:17.930Z,68.16
2018-05-11T06:13:44.309Z,69.33
2018-05-11T06:16:10.688Z,67.23
2018-05-11T06:18:37.280Z,68.41
2018-05-11T06:21:03.701Z,68.84
2018-05-11T06:23:30.073Z,66.55
2018-05-11T06:25:56.623Z,68.18
2018-05-11T06:28:26.430Z,69.48
2018-05-11T06:30:53.078Z,67.63
2018-05-11T06:33:19.421Z,67.05
2018-05-11T06:35:45.818Z,69.04
2018-05-11T06:38:12.249Z,69.67
2018-05-11T06:40:39.169Z,67.95
2018-05-11T06:43:05.513Z,68.25
2018-05-11T06:45:31.873Z,70.02
2018-05-11T06:47:58.274Z,69.73
2018-05-11T06:50:24.619Z,68.72
2018-05-11T06:52:51.291Z,69.46
2018-05-11T06:55:17.629Z,70.12
2018-05-11T06:57:47.726Z,69.81
2018-05-11T07:00:14.134Z,70.09
2018-05-11T07:02:40.463Z,68.05
2018-05-11T07:05:07.145Z,69.41
2018-05-11T07:07:37.210Z,70.19
2018-05-11T07:10:03.894Z,70.92
2018-05-11T07:12:30.297Z,67.00
2018-05-11T07:14:56.624Z,67.50
2018-05-11T07:17:22.981Z,67.38
2018-05-11T07:19:49.342Z,69.44
2018-05-11T07:22:15.762Z,70.84
2018-05-11T07:24:42.094Z,68.10
2018-05-11T07:27:09.753Z,65.91
2018-05-11T07:29:36.188Z,67.85
2018-05-11T07:32:02.522Z,68.69
2018-05-11T07:34:29.019Z,69.25
2018-05-11T07:36:57.642Z,68.51
2018-05-11T07:39:24.285Z,69.45
2018-05-11T07:41:50.840Z,71.90
2018-05-11T07:44:17.245Z,71.13
2018-05-11T07:46:44.258Z,69.51
2018-05-11T07:49:10.824Z,67.78
2018-05-11T07:51:37.518Z,66.04
2018-05-11T07:54:03.957Z,67.42
2018-05-11T07:56:30.644Z,68.05
2018-05-11T07:59:08.317Z,66.22
2018-05-11T08:01:34.791Z,60.76
2018-05-11T08:04:01.211Z,59.76
2018-05-11T08:06:27.543Z,59.98
2018-05-11T08:08:55.038Z,59.07
2018-05-11T08:11:21.641Z,58.45
2018-05-11T08:13:47.985Z,59.49
2018-05-11T08:16:14.502Z,66.21
2018-05-11T08:18:45.176Z,61.85
2018-05-11T08:21:11.571Z,58.43
2018-05-11T08:23:38.121Z,60.47
2018-05-11T08:26:04.472Z,56.11
2018-05-11T08:28:38.037Z,56.78
2018-05-11T08:31:04.513Z,55.74
2018-05-11T08:33:30.926Z,58.82
2018-05-11T08:35:57.407Z,57.88
2018-05-11T08:38:24.769Z,53.71
2018-05-11T08:40:52.161Z,56.08
2018-05-11T08:43:18.699Z,59.36
2018-05-11T08:45:45.005Z,54.87
2018-05-11T08:48:11.522Z,55.63
2018-05-11T08:50:37.990Z,55.31
2018-05-11T08:53:04.339Z,57.40
2018-05-11T08:55:30.796Z,52.10
2018-05-11T08:58:00.610Z,52.36
2018-05-11T09:00:27.139Z,54.84
2018-05-11T09:02:53.516Z,51.31
2018-05-11T09:05:19.924Z,55.63
2018-05-11T09:07:47.330Z,56.26
2018-05-11T09:10:13.698Z,54.54
2018-05-11T09:12:40.239Z,57.97
2018-05-11T09:15:06.730Z,55.60
2018-05-11T09:17:33.380Z,54.79
2018-05-11T09:20:00.016Z,52.94
2018-05-11T09:22:26.657Z,54.56
2018-05-11T09:24:53.070Z,55.09
2018-05-11T09:27:19.611Z,58.14
2018-05-11T09:29:46.051Z,55.30
2018-05-11T09:32:12.922Z,55.13
2018-05-11T09:34:39.333Z,54.84
2018-05-11T09:37:05.847Z,54.86
2018-05-11T09:39:32.429Z,56.70
2018-05-11T09:41:58.832Z,55.71
2018-05-11T09:44:25.263Z,59.84
2018-05-11T09:46:51.587Z,56.56
2018-05-11T09:49:17.992Z,55.58
2018-05-11T09:51:44.452Z,55.32
2018-05-11T09:54:10.940Z,53.56
2018-05-11T09:56:37.375Z,57.86
2018-05-11T09:59:03.893Z,55.11
2018-05-11T10:01:30.281Z,55.19
2018-05-11T10:03:56.700Z,55.25
2018-05-11T10:06:23.083Z,55.88
2018-05-11T10:08:49.486Z,55.46
2018-05-11T10:11:15.900Z,54.37
2018-05-11T10:13:42.274Z,54.15
2018-05-11T10:16:08.765Z,55.39
2018-05-11T10:18:35.298Z,51.30
2018-05-11T10:21:01.772Z,51.22
2018-05-11T10:23:28.364Z,48.34
2018-05-11T10:25:55.029Z,52.54
2018-05-11T10:28:21.606Z,50.35
2018-05-11T10:30:48.217Z,48.63
2018-05-11T10:33:14.694Z,53.30
2018-05-11T10:35:41.134Z,48.03
2018-05-11T10:38:07.568Z,55.66
2018-05-11T10:40:34.057Z,49.54
2018-05-11T10:43:00.468Z,52.07
2018-05-11T10:45:33.813Z,53.64
2018-05-11T10:48:00.305Z,54.34
2018-05-11T10:50:26.665Z,55.18
2018-05-11T10:52:53.058Z,54.38
2018-05-11T10:55:19.416Z,51.40
2018-05-11T10:57:45.987Z,47.59
2018-05-11T11:00:12.429Z,46.82
2018-05-11T11:02:38.848Z,50.45
2018-05-11T11:05:05.257Z,50.37
2018-05-11T11:07:31.827Z,53.31
2018-05-11T11:09:58.267Z,50.04
2018-05-11T11:12:24.674Z,48.55
2018-05-11T11:14:51.131Z,48.92
2018-05-11T11:17:17.553Z,51.44
2018-05-11T11:19:43.937Z,51.31
2018-05-11T11:22:10.355Z,49.02
2018-05-11T11:24:36.763Z,46.22
2018-05-11T11:27:03.135Z,49.62
2018-05-11T11:29:29.528Z,49.70
2018-05-11T11:31:55.911Z,45.62
2018-05-11T11:34:22.386Z,45.58
2018-05-11T11:36:48.816Z,51.30
2018-05-11T11:39:15.230Z,50.48
2018-05-11T11:41:41.658Z,54.45
2018-05-11T11:44:08.162Z,54.13
2018-05-11T11:46:34.753Z,52.51
2018-05-11T11:49:01.344Z,52.10
2018-05-11T11:51:27.869Z,46.98
2018-05-11T11:53:54.297Z,48.09
2018-05-11T11:56:20.755Z,45.64
2018-05-11T11:58:47.168Z,44.50
2018-05-11T12:01:13.624Z,47.46
2018-05-11T12:03:40.027Z,50.22
2018-05-11T12:06:06.472Z,48.60
2018-05-11T12:08:33.076Z,45.82
2018-05-11T12:10:59.453Z,48.64
2018-05-11T12:13:26.004Z,54.90
2018-05-11T12:15:59.301Z,52.88
2018-05-11T12:18:25.848Z,46.24
2018-05-11T12:20:52.318Z,50.62
2018-05-11T12:23:18.733Z,48.56
2018-05-11T12:25:45.156Z,44.78
2018-05-11T12:28:11.781Z,44.59
2018-05-11T12:30:38.243Z,44.08
2018-05-11T12:33:04.632Z,44.85
2018-05-11T12:35:30.976Z,41.36
2018-05-11T12:37:57.503Z,39.50
2018-05-11T12:40:23.882Z,37.58
2018-05-11T12:42:50.285Z,42.22
2018-05-11T12:45:16.762Z,41.74
2018-05-11T12:47:46.973Z,43.13
2018-05-11T12:50:13.464Z,41.01
2018-05-11T12:52:39.846Z,40.17
2018-05-11T12:55:06.231Z,36.89
2018-05-11T12:57:32.633Z,42.51
2018-05-11T12:59:59.064Z,43.20
2018-05-11T13:02:25.580Z,42.84
2018-05-11T13:04:52.109Z,42.20
2018-05-11T13:07:18.529Z,39.15
2018-05-11T13:09:44.981Z,38.53
2018-05-11T13:12:11.456Z,41.09
2018-05-11T13:14:37.829Z,43.41
2018-05-11T13:17:04.402Z,43.47
2018-05-11T13:19:30.752Z,45.71
2018-05-11T13:21:57.561Z,45.83
2018-05-11T13:24:24.138Z,46.90
2018-05-11T13:26:50.527Z,46.91
2018-05-11T13:29:16.912Z,49.82
2018-05-11T13:31:43.331Z,49.97
2018-05-11T13:34:09.657Z,52.42
2018-05-11T13:36:36.010Z,57.10
2018-05-11T13:39:02.597Z,60.08
2018-05-11T13:41:28.927Z,63.24
2018-05-11T13:43:55.349Z,65.81
2018-05-11T13:46:21.757Z,68.33
2018-05-11T13:48:48.258Z,67.18
2018-05-11T13:51:14.685Z,64.93
2018-05-11T13:53:41.159Z,61.08
2018-05-11T13:56:07.713Z,68.34
2018-05-11T13:58:34.035Z,67.01
2018-05-11T14:01:00.526Z,71.18
2018-05-11T14:03:26.925Z,71.39
2018-05-11T14:05:53.440Z,74.33
2018-05-11T14:08:20.078Z,73.53
2018-05-11T14:10:46.525Z,73.64
2018-05-11T14:13:12.934Z,74.92
2018-05-11T14:15:39.431Z,74.94
2018-05-11T14:18:05.929Z,74.62
2018-05-11T14:20:32.273Z,70.42
2018-05-11T14:22:58.778Z,74.63
2018-05-11T14:25:25.233Z,73.46
2018-05-11T14:27:51.669Z,73.75
2018-05-11T14:30:18.107Z,76.43
2018-05-11T14:32:44.577Z,76.35
2018-05-11T14:35:10.961Z,69.91
2018-05-11T14:37:37.617Z,73.85
2018-05-11T14:40:04.150Z,76.78
2018-05-11T14:42:30.609Z,75.17
2018-05-11T14:44:57.047Z,70.86
2018-05-11T14:47:23.549Z,73.09
2018-05-11T14:49:50.158Z,75.83
2018-05-11T14:52:16.844Z,75.99
2018-05-11T14:54:43.348Z,74.52
2018-05-11T14:57:09.907Z,73.41
2018-05-11T14:59:36.361Z,72.96
2018-05-11T15:02:02.811Z,75.45
2018-05-11T15:04:29.198Z,71.73
2018-05-11T15:06:55.724Z,71.62
2018-05-11T15:09:22.242Z,71.49
2018-05-11T15:11:48.626Z,75.13
2018-05-11T15:14:15.167Z,76.84
2018-05-11T15:16:42.181Z,76.61
2018-05-11T15:19:09.014Z,74.38
2018-05-11T15:21:35.601Z,74.99
2018-05-11T15:24:02.011Z,76.78
2018-05-11T15:26:28.360Z,79.24
2018-05-11T15:28:54.798Z,78.91
2018-05-11T15:31:21.167Z,79.13
2018-05-11T15:33:47.673Z,80.76
2018-05-11T15:36:14.510Z,79.10
2018-05-11T15:38:41.095Z,80.13
2018-05-11T15:41:08.260Z,77.79
2018-05-11T15:43:34.868Z,77.53
2018-05-11T15:46:01.962Z,78.74
2018-05-11T15:48:28.702Z,79.24
2018-05-11T15:50:55.531Z,78.56
2018-05-11T15:53:22.034Z,78.07
2018-05-11T15:55:49.149Z,77.11
2018-05-11T15:58:15.599Z,75.93
2018-05-11T16:00:42.203Z,76.43
2018-05-11T16:03:09.206Z,74.34
2018-05-11T16:05:35.802Z,74.92
2018-05-11T16:08:02.338Z,74.01
2018-05-11T16:10:28.770Z,75.10
2018-05-11T16:12:55.282Z,74.61
2018-05-11T16:15:21.587Z,76.56
2018-05-11T16:17:48.056Z,76.66
2018-05-11T16:20:14.496Z,77.03
2018-05-11T16:22:40.870Z,77.72
2018-05-11T16:25:07.301Z,75.71
2018-05-11T16:27:33.877Z,77.64
2018-05-11T16:30:00.231Z,78.20
2018-05-11T16:32:26.563Z,79.46
2018-05-11T16:34:52.972Z,79.57
2018-05-11T16:37:19.490Z,80.62
2018-05-11T16:39:45.883Z,81.95
2018-05-11T16:42:12.378Z,80.12
2018-05-11T16:44:38.801Z,80.41
2018-05-11T16:47:05.211Z,82.25
2018-05-11T16:49:31.686Z,80.94
2018-05-11T16:51:58.335Z,81.60
2018-05-11T16:54:24.873Z,82.29
2018-05-11T16:56:51.687Z,81.79
2018-05-11T16:59:18.139Z,81.92
2018-05-11T17:01:44.556Z,82.67
2018-05-11T17:04:11.058Z,83.23
2018-05-11T17:06:37.583Z,83.75
2018-05-11T17:09:04.057Z,84.11
2018-05-11T17:11:30.522Z,83.26
2018-05-11T17:13:57.584Z,83.68
2018-05-11T17:16:24.260Z,84.82
2018-05-11T17:18:50.731Z,84.08
2018-05-11T17:21:17.324Z,85.84
2018-05-11T17:23:43.908Z,85.88
2018-05-11T17:26:10.364Z,85.58
2018-05-11T17:28:37.049Z,85.87
2018-05-11T17:31:03.648Z,85.32
2018-05-11T17:33:30.742Z,86.38
2018-05-11T17:35:57.212Z,86.58
2018-05-11T17:38:24.088Z,87.33
2018-05-11T17:40:50.719Z,86.95
2018-05-11T17:43:17.813Z,87.60
2018-05-11T17:45:44.582Z,88.18
2018-05-11T17:48:12.014Z,87.43
2018-05-11T17:50:39.536Z,87.48
2018-05-11T17:53:07.852Z,88.07
2018-05-11T17:55:35.102Z,89.63
2018-05-11T17:58:01.763Z,88.57
2018-05-11T18:00:28.663Z,87.16
2018-05-11T18:02:57.233Z,88.21
2018-05-11T18:05:24.268Z,89.21
2018-05-11T18:07:54.317Z,88.05
2018-05-11T18:10:21.573Z,88.96
2018-05-11T18:12:48.611Z,88.62
2018-05-11T18:15:15.284Z,89.04
2018-05-11T18:17:42.776Z,88.73
2018-05-11T18:20:09.158Z,88.95
2018-05-11T18:22:35.632Z,88.88
2018-05-11T18:25:02.247Z,88.81
2018-05-11T18:27:29.815Z,90.08
2018-05-11T18:29:56.551Z,89.33
2018-05-11T18:32:23.386Z,89.46
2018-05-11T18:34:50.092Z,89.65
2018-05-11T18:37:20.204Z,90.31
2018-05-11T18:39:48.036Z,89.64
2018-05-11T18:42:14.697Z,89.83
2018-05-11T18:44:41.195Z,89.93
2018-05-11T18:47:08.050Z,89.57
2018-05-11T18:49:35.063Z,90.73
2018-05-11T18:52:02.296Z,90.14
2018-05-11T18:54:29.532Z,90.27
2018-05-11T18:56:56.159Z,90.19
2018-05-11T18:59:23.176Z,90.38
2018-05-11T19:01:51.171Z,90.40
2018-05-11T19:07:02.014Z,92.05
2018-05-11T19:09:35.979Z,90.15
2018-05-11T19:12:07.648Z,91.58
2018-05-11T19:14:38.920Z,90.87
2018-05-11T19:17:09.259Z,91.63
2018-05-11T19:19:38.292Z,91.06
2018-05-11T19:22:08.519Z,90.89
2018-05-11T19:24:36.071Z,91.18
2018-05-11T19:27:04.536Z,91.36
2018-05-11T19:29:33.838Z,91.61
2018-05-11T19:32:02.199Z,92.21
2018-05-11T19:34:30.755Z,91.33
2018-05-11T19:37:00.694Z,91.82
2018-05-11T19:39:28.575Z,91.76
2018-05-11T19:41:56.098Z,92.59
2018-05-11T19:44:24.087Z,92.21
2018-05-11T19:46:51.828Z,91.70
2018-05-11T19:49:19.537Z,91.68
2018-05-11T19:51:47.041Z,92.49
2018-05-11T19:54:15.522Z,93.00
2018-05-11T19:56:43.120Z,92.40
2018-05-11T19:59:10.713Z,92.82
2018-05-11T20:01:38.153Z,92.71
2018-05-11T20:04:05.776Z,93.58
2018-05-11T20:06:33.574Z,93.76
2018-05-11T20:09:00.905Z,92.90
2018-05-11T20:11:28.591Z,93.75
2018-05-11T20:16:23.721Z,93.03
2018-05-11T20:18:50.898Z,93.57
2018-05-11T20:21:18.140Z,93.30
2018-05-11T20:23:46.033Z,93.38
2018-05-11T20:26:13.127Z,93.69
2018-05-11T20:28:40.465Z,93.26
2018-05-11T20:31:07.604Z,94.01
2018-05-11T20:33:36.484Z,93.81
2018-05-11T20:36:04.030Z,93.71
2018-05-11T20:38:31.787Z,93.62
2018-05-11T20:40:59.022Z,93.73
2018-05-11T20:43:25.566Z,93.57
2018-05-11T20:45:52.302Z,94.12
2018-05-11T20:48:19.058Z,94.09
2018-05-11T20:50:46.038Z,94.62
2018-05-11T20:53:13.912Z,94.25
2018-05-11T20:55:41.366Z,93.99
2018-05-11T20:58:08.110Z,94.53
2018-05-11T21:00:35.159Z,94.68
2018-05-11T21:03:02.719Z,94.97
2018-05-11T21:05:29.741Z,94.84
2018-05-11T21:07:56.634Z,94.54
2018-05-11T21:10:23.679Z,94.31
2018-05-11T21:12:50.941Z,94.81
2018-05-11T21:15:17.572Z,95.02
2018-05-11T21:17:44.407Z,95.66
2018-05-11T21:20:11.082Z,95.98
2018-05-11T21:22:37.790Z,95.67
2018-05-11T21:25:04.492Z,95.51
2018-05-11T21:27:31.251Z,95.14
2018-05-11T21:29:57.965Z,95.33
2018-05-11T21:32:24.744Z,95.14
2018-05-11T21:34:51.479Z,95.06
2018-05-11T21:37:18.239Z,95.93
2018-05-11T21:39:45.263Z,96.09
2018-05-11T21:42:12.040Z,95.77
2018-05-11T21:44:39.076Z,95.64
2018-05-11T21:47:06.105Z,95.23
2018-05-11T21:49:33.303Z,95.88
2018-05-11T21:52:00.508Z,95.66
2018-05-11T21:54:36.812Z,95.48
2018-05-11T21:57:06.994Z,95.85
2018-05-11T21:59:34.469Z,96.03
2018-05-11T22:02:01.141Z,95.62
2018-05-11T22:04:27.816Z,96.48
2018-05-11T22:06:54.445Z,96.19
2018-05-11T22:09:21.165Z,96.37
2018-05-11T22:11:47.569Z,96.19
2018-05-11T22:14:14.392Z,96.31
2018-05-11T22:16:41.105Z,97.32
2018-05-11T22:19:09.049Z,96.21
2018-05-11T22:21:43.019Z,96.54
2018-05-11T22:24:13.287Z,96.67
2018-05-11T22:26:40.441Z,96.91
2018-05-11T22:29:06.914Z,96.02
2018-05-11T22:31:33.366Z,96.57
2018-05-11T22:33:59.756Z,95.84
2018-05-11T22:36:26.132Z,96.72
2018-05-11T22:38:55.083Z,96.46
2018-05-11T22:41:22.072Z,96.66
2018-05-11T22:43:48.513Z,96.58
2018-05-11T22:46:15.008Z,97.43
2018-05-11T22:48:42.236Z,96.89
2018-05-11T22:51:08.706Z,97.07
2018-05-11T22:53:35.079Z,97.10
2018-05-11T22:56:01.496Z,96.46
2018-05-11T22:58:28.027Z,96.59
2018-05-11T23:00:54.427Z,96.89
2018-05-11T23:03:20.765Z,97.46
2018-05-11T23:05:47.381Z,97.72
2018-05-11T23:08:13.859Z,96.79
2018-05-11T23:10:40.216Z,95.98
2018-05-11T23:13:07.444Z,96.70
2018-05-11T23:15:33.870Z,96.92
2018-05-11T23:18:00.784Z,97.03
2018-05-11T23:20:27.193Z,96.26
2018-05-11T23:22:53.697Z,95.18
2018-05-11T23:25:20.088Z,95.71
2018-05-11T23:27:46.633Z,96.15
2018-05-11T23:30:12.998Z,97.32
2018-05-11T23:32:39.397Z,97.48
2018-05-11T23:35:05.883Z,97.38
2018-05-11T23:37:32.205Z,97.52
2018-05-11T23:39:58.673Z,97.15
2018-05-11T23:42:25.223Z,96.94
2018-05-11T23:44:51.581Z,97.04
2018-05-11T23:47:17.944Z,96.80
2018-05-11T23:49:44.758Z,97.26
2018-05-11T23:52:11.108Z,97.04
2018-05-11T23:54:37.929Z,97.04
2018-05-11T23:57:04.388Z,97.22
2018-05-11T23:59:30.876Z,97.25
